createdAt,value
2022-11-28T00:00:06.313Z,69.81
2022-11-28T00:02:32.797Z,70.11
2022-11-28T00:04:59.231Z,70.30
2022-11-28T00:07:25.704Z,70.13
2022-11-28T00:09:52.846Z,70.08
2022-11-28T00:12:19.174Z,69.77
2022-11-28T00:14:45.525Z,69.39
2022-11-28T00:17:11.846Z,69.64
2022-11-28T00:19:38.181Z,69.64
2022-11-28T00:22:04.570Z,69.77
2022-11-28T00:24:30.975Z,69.92
2022-11-28T00:26:57.295Z,69.55
2022-11-28T00:29:23.621Z,69.79
2022-11-28T00:31:50.061Z,69.80
2022-11-28T00:34:16.512Z,69.68
2022-11-28T00:36:45.413Z,69.28
2022-11-28T00:39:12.193Z,69.42
2022-11-28T00:41:38.583Z,69.41
2022-11-28T00:44:05.229Z,69.56
2022-11-28T00:46:31.639Z,69.58
2022-11-28T00:48:59.149Z,69.69
2022-11-28T00:51:28.463Z,69.36
2022-11-28T00:53:57.303Z,70.10
2022-11-28T00:56:26.852Z,70.28
2022-11-28T00:58:53.386Z,70.52
2022-11-28T01:01:29.544Z,70.05
2022-11-28T01:03:57.472Z,70.47
2022-11-28T01:06:28.123Z,70.76
2022-11-28T01:08:55.525Z,70.42
2022-11-28T01:11:22.151Z,70.34
2022-11-28T01:13:48.851Z,70.33
2022-11-28T01:16:15.862Z,70.70
2022-11-28T01:18:42.504Z,70.35
2022-11-28T01:21:09.496Z,70.66
2022-11-28T01:23:36.275Z,70.34
2022-11-28T01:26:04.348Z,70.23
2022-11-28T01:28:30.814Z,70.28
2022-11-28T01:30:57.257Z,70.34
2022-11-28T01:33:23.617Z,70.88
2022-11-28T01:35:58.097Z,70.88
2022-11-28T01:38:25.465Z,70.30
2022-11-28T01:40:52.832Z,70.16
2022-11-28T01:43:21.289Z,70.58
2022-11-28T01:45:47.962Z,70.29
2022-11-28T01:48:18.131Z,70.14
2022-11-28T01:50:47.739Z,70.49
2022-11-28T01:53:14.563Z,70.99
2022-11-28T01:55:52.373Z,71.12
2022-11-28T01:58:18.861Z,70.71
2022-11-28T02:00:46.524Z,70.76
2022-11-28T02:03:20.329Z,70.17
2022-11-28T02:05:49.985Z,70.04
2022-11-28T02:08:16.346Z,70.30
2022-11-28T02:11:18.412Z,70.16
2022-11-28T02:14:05.464Z,70.45
2022-11-28T02:16:43.168Z,70.52
2022-11-28T02:19:47.101Z,70.55
2022-11-28T02:22:38.699Z,70.81
2022-11-28T02:25:47.430Z,70.26
2022-11-28T02:28:30.790Z,70.40
2022-11-28T02:31:33.481Z,70.15
2022-11-28T02:34:08.386Z,69.67
2022-11-28T02:36:46.090Z,70.00
2022-11-28T02:39:31.769Z,70.05
2022-11-28T02:42:24.533Z,70.65
2022-11-28T02:45:13.792Z,70.01
2022-11-28T02:47:53.836Z,69.73
2022-11-28T02:50:32.330Z,69.95
2022-11-28T02:53:14.493Z,70.53
2022-11-28T02:55:42.872Z,70.53
2022-11-28T02:58:10.713Z,70.41
2022-11-28T03:00:39.783Z,70.31
2022-11-28T03:03:21.390Z,70.04
2022-11-28T03:06:18.742Z,70.32
2022-11-28T03:08:59.062Z,70.30
2022-11-28T03:11:47.486Z,70.08
2022-11-28T03:14:24.146Z,70.07
2022-11-28T03:17:19.704Z,70.00
2022-11-28T03:20:16.817Z,70.36
2022-11-28T03:23:04.603Z,70.36
2022-11-28T03:25:47.521Z,70.22
2022-11-28T03:28:26.085Z,70.08
2022-11-28T03:31:01.880Z,70.74
2022-11-28T03:33:33.265Z,70.52
2022-11-28T03:36:12.517Z,70.38
2022-11-28T03:38:42.849Z,70.71
2022-11-28T03:41:18.930Z,70.78
2022-11-28T03:43:52.139Z,71.05
2022-11-28T03:46:23.382Z,71.34
2022-11-28T03:48:54.490Z,70.47
2022-11-28T03:51:28.955Z,70.72
2022-11-28T03:54:10.683Z,70.64
2022-11-28T03:56:37.357Z,71.01
2022-11-28T03:59:16.905Z,70.43
2022-11-28T04:02:11.890Z,70.84
2022-11-28T04:04:53.313Z,70.77
2022-11-28T04:07:28.763Z,71.10
2022-11-28T04:10:13.817Z,71.12
2022-11-28T04:13:15.524Z,71.29
2022-11-28T04:15:59.211Z,71.66
2022-11-28T04:18:47.865Z,71.83
2022-11-28T04:21:29.425Z,71.67
2022-11-28T04:24:01.257Z,71.23
2022-11-28T04:26:33.086Z,71.50
2022-11-28T04:29:02.427Z,71.61
2022-11-28T04:31:31.098Z,71.63
2022-11-28T04:34:02.342Z,71.15
2022-11-28T04:36:30.289Z,71.53
2022-11-28T04:38:59.537Z,71.49
2022-11-28T04:41:40.417Z,71.42
2022-11-28T04:44:18.122Z,71.71
2022-11-28T04:46:55.497Z,71.79
2022-11-28T04:49:23.537Z,71.57
2022-11-28T04:52:17.773Z,71.60
2022-11-28T04:55:03.870Z,71.41
2022-11-28T04:57:35.356Z,71.85
2022-11-28T05:00:04.525Z,71.83
2022-11-28T05:02:32.272Z,71.68
2022-11-28T05:04:59.587Z,71.78
2022-11-28T05:07:26.029Z,71.67
2022-11-28T05:09:52.460Z,71.69
2022-11-28T05:12:18.798Z,71.48
2022-11-28T05:14:45.144Z,71.67
2022-11-28T05:17:13.105Z,71.04
2022-11-28T05:19:39.609Z,71.20
2022-11-28T05:22:06.405Z,71.96
2022-11-28T05:24:32.737Z,71.76
2022-11-28T05:26:59.247Z,72.04
2022-11-28T05:29:25.819Z,72.45
2022-11-28T05:31:52.244Z,71.96
2022-11-28T05:34:18.631Z,71.67
2022-11-28T05:36:45.077Z,71.58
2022-11-28T05:39:11.409Z,71.84
2022-11-28T05:41:37.740Z,71.53
2022-11-28T05:44:04.124Z,71.37
2022-11-28T05:46:30.504Z,71.51
2022-11-28T05:48:56.898Z,71.08
2022-11-28T05:51:23.231Z,71.22
2022-11-28T05:53:49.663Z,71.61
2022-11-28T05:56:19.167Z,71.35
2022-11-28T05:58:45.992Z,71.21
2022-11-28T06:01:18.573Z,72.02
2022-11-28T06:03:45.609Z,71.81
2022-11-28T06:06:17.512Z,72.83
2022-11-28T06:08:44.671Z,72.88
2022-11-28T06:11:12.059Z,73.79
2022-11-28T06:13:38.561Z,73.92
2022-11-28T06:16:10.151Z,74.15
2022-11-28T06:18:37.046Z,73.92
2022-11-28T06:21:04.857Z,73.25
2022-11-28T06:23:32.872Z,72.61
2022-11-28T06:26:07.897Z,72.61
2022-11-28T06:28:34.930Z,72.56
2022-11-28T06:31:02.132Z,72.48
2022-11-28T06:33:28.917Z,72.38
2022-11-28T06:36:02.302Z,72.71
2022-11-28T06:38:29.037Z,72.37
2022-11-28T06:41:02.482Z,72.59
2022-11-28T06:43:29.612Z,71.72
2022-11-28T06:45:56.672Z,72.03
2022-11-28T06:48:23.970Z,71.88
2022-11-28T06:50:51.159Z,71.53
2022-11-28T06:53:18.257Z,71.53
2022-11-28T06:55:45.645Z,71.63
2022-11-28T06:58:12.088Z,71.98
2022-11-28T07:00:39.142Z,72.99
2022-11-28T07:03:05.477Z,73.13
2022-11-28T07:05:31.968Z,73.11
2022-11-28T07:07:58.567Z,73.21
2022-11-28T07:10:25.437Z,73.51
2022-11-28T07:13:04.906Z,74.10
2022-11-28T07:15:32.000Z,73.70
2022-11-28T07:17:58.334Z,73.34
2022-11-28T07:20:24.687Z,73.20
2022-11-28T07:22:51.073Z,72.61
2022-11-28T07:25:17.824Z,72.85
2022-11-28T07:27:44.242Z,72.38
2022-11-28T07:30:11.098Z,72.33
2022-11-28T07:32:41.146Z,72.34
2022-11-28T07:35:08.774Z,72.14
2022-11-28T07:37:35.608Z,72.10
2022-11-28T07:40:02.205Z,72.36
2022-11-28T07:42:28.545Z,71.79
2022-11-28T07:44:54.905Z,72.02
2022-11-28T07:47:22.101Z,71.94
2022-11-28T07:49:48.440Z,71.84
2022-11-28T07:52:15.225Z,71.81
2022-11-28T07:54:41.704Z,71.70
2022-11-28T07:57:12.523Z,71.25
2022-11-28T07:59:39.690Z,71.79
2022-11-28T08:02:07.358Z,71.71
2022-11-28T08:04:33.799Z,73.12
2022-11-28T08:07:00.187Z,76.08
2022-11-28T08:09:26.754Z,75.90
2022-11-28T08:11:53.097Z,75.93
2022-11-28T08:14:20.403Z,74.81
2022-11-28T08:16:46.820Z,74.55
2022-11-28T08:19:13.520Z,74.08
2022-11-28T08:21:40.033Z,73.52
2022-11-28T08:24:07.959Z,73.28
2022-11-28T08:26:34.894Z,72.73
2022-11-28T08:29:02.197Z,72.71
2022-11-28T08:31:34.277Z,72.35
2022-11-28T08:34:02.722Z,72.41
2022-11-28T08:36:29.603Z,72.04
2022-11-28T08:39:22.256Z,72.26
2022-11-28T08:41:42.716Z,72.06
2022-11-28T08:44:09.090Z,72.13
2022-11-28T08:46:36.214Z,72.47
2022-11-28T08:49:04.595Z,72.77
2022-11-28T08:51:31.653Z,72.35
2022-11-28T08:53:59.753Z,72.27
2022-11-28T08:56:27.075Z,72.08
2022-11-28T08:58:53.790Z,71.96
2022-11-28T09:01:22.649Z,72.05
2022-11-28T09:03:49.629Z,72.06
2022-11-28T09:06:17.150Z,72.34
2022-11-28T09:08:43.956Z,72.25
2022-11-28T09:11:12.548Z,72.89
2022-11-28T09:13:39.392Z,73.51
2022-11-28T09:16:06.062Z,73.43
2022-11-28T09:18:32.474Z,73.12
2022-11-28T09:21:11.434Z,73.77
2022-11-28T09:23:40.778Z,74.72
2022-11-28T09:26:12.150Z,75.12
2022-11-28T09:28:38.714Z,74.65
2022-11-28T09:31:06.191Z,74.91
2022-11-28T09:33:33.112Z,74.50
2022-11-28T09:36:04.575Z,74.18
2022-11-28T09:38:30.876Z,74.88
2022-11-28T09:40:57.265Z,74.61
2022-11-28T09:43:31.568Z,73.92
2022-11-28T09:46:00.276Z,74.08
2022-11-28T09:48:32.661Z,73.62
2022-11-28T09:51:19.245Z,73.06
2022-11-28T09:54:14.250Z,72.78
2022-11-28T09:56:41.105Z,72.99
2022-11-28T09:59:22.805Z,72.55
2022-11-28T10:02:16.383Z,72.20
2022-11-28T10:05:33.886Z,71.92
2022-11-28T10:08:18.685Z,71.94
2022-11-28T10:11:16.931Z,72.20
2022-11-28T10:14:11.110Z,72.15
2022-11-28T10:16:40.361Z,72.22
2022-11-28T10:19:31.715Z,72.05
2022-11-28T10:22:02.811Z,71.81
2022-11-28T10:24:47.237Z,71.58
2022-11-28T10:27:15.743Z,71.31
2022-11-28T10:29:57.460Z,71.03
2022-11-28T10:32:37.742Z,71.16
2022-11-28T10:35:26.753Z,70.69
2022-11-28T10:37:54.657Z,70.65
2022-11-28T10:40:44.158Z,70.63
2022-11-28T10:43:25.112Z,70.71
2022-11-28T10:46:06.688Z,70.22
2022-11-28T10:48:59.188Z,70.19
2022-11-28T10:51:40.790Z,69.66
2022-11-28T10:54:38.710Z,69.74
2022-11-28T10:57:20.294Z,69.72
2022-11-28T10:59:55.942Z,69.59
2022-11-28T11:02:33.830Z,69.44
2022-11-28T11:05:00.519Z,69.61
2022-11-28T11:10:12.144Z,69.68
2022-11-28T11:12:38.950Z,68.92
2022-11-28T11:15:36.091Z,68.86
2022-11-28T11:18:36.077Z,69.16
2022-11-28T11:21:21.861Z,68.79
2022-11-28T11:23:49.785Z,68.67
2022-11-28T11:26:27.445Z,68.18
2022-11-28T11:28:54.833Z,68.60
2022-11-28T11:31:27.762Z,68.91
2022-11-28T11:34:03.290Z,68.96
2022-11-28T11:36:32.653Z,69.54
2022-11-28T11:39:07.197Z,69.93
2022-11-28T11:41:34.439Z,69.47
2022-11-28T11:44:20.305Z,68.60
2022-11-28T11:46:54.463Z,68.54
2022-11-28T11:49:33.504Z,68.00
2022-11-28T11:52:04.258Z,67.54
2022-11-28T11:54:31.081Z,67.40
2022-11-28T11:57:24.903Z,67.29
2022-11-28T11:59:51.356Z,66.84
2022-11-28T12:02:55.588Z,66.63
2022-11-28T12:05:52.352Z,67.26
2022-11-28T12:08:38.004Z,67.25
2022-11-28T12:11:21.808Z,67.22
2022-11-28T12:13:49.622Z,66.83
2022-11-28T12:16:41.476Z,66.86
2022-11-28T12:19:26.315Z,66.99
2022-11-28T12:22:25.251Z,67.11
2022-11-28T12:25:08.661Z,66.38
2022-11-28T12:27:46.767Z,67.97
2022-11-28T12:30:25.329Z,67.48
2022-11-28T12:33:24.241Z,67.44
2022-11-28T12:36:19.098Z,67.52
2022-11-28T12:38:48.387Z,67.53
2022-11-28T12:41:33.046Z,67.37
2022-11-28T12:44:31.543Z,67.58
2022-11-28T12:47:18.457Z,67.51
2022-11-28T12:50:21.277Z,67.74
2022-11-28T12:53:00.267Z,67.14
2022-11-28T12:55:36.879Z,67.69
2022-11-28T12:58:24.256Z,67.23
2022-11-28T13:01:14.301Z,67.42
2022-11-28T13:03:55.894Z,67.27
2022-11-28T13:06:51.375Z,67.13
2022-11-28T13:09:28.756Z,67.36
2022-11-28T13:12:05.963Z,67.47
2022-11-28T13:14:56.371Z,67.17
2022-11-28T13:17:50.383Z,67.46
2022-11-28T13:20:45.406Z,67.33
2022-11-28T13:23:28.486Z,67.13
2022-11-28T13:26:18.137Z,67.11
2022-11-28T13:29:27.070Z,66.79
2022-11-28T13:32:02.716Z,66.57
2022-11-28T13:34:30.976Z,66.17
2022-11-28T13:40:07.675Z,66.59
2022-11-28T13:43:07.994Z,66.56
2022-11-28T13:45:40.343Z,66.74
2022-11-28T13:49:13.075Z,66.83
2022-11-28T13:51:30.541Z,66.72
2022-11-28T13:54:22.997Z,66.51
2022-11-28T13:57:27.051Z,67.17
2022-11-28T14:00:06.149Z,66.88
2022-11-28T14:02:52.472Z,66.70
2022-11-28T14:05:32.994Z,66.72
2022-11-28T14:08:00.837Z,66.57
2022-11-28T14:10:37.123Z,66.74
2022-11-28T14:13:28.059Z,66.74
2022-11-28T14:16:20.215Z,66.88
2022-11-28T14:18:57.618Z,67.02
2022-11-28T14:21:31.285Z,67.82
2022-11-28T14:24:12.406Z,67.56
2022-11-28T14:26:42.901Z,67.76
2022-11-28T14:29:23.531Z,67.97
2022-11-28T14:32:21.915Z,68.51
2022-11-28T14:34:43.797Z,67.75
2022-11-28T14:37:19.403Z,67.36
2022-11-28T14:39:49.769Z,67.23
2022-11-28T14:42:36.739Z,66.96
2022-11-28T14:45:42.754Z,67.52
2022-11-28T14:48:17.505Z,67.60
2022-11-28T14:50:48.987Z,68.57
2022-11-28T14:53:33.595Z,67.79
2022-11-28T14:56:15.691Z,67.34
2022-11-28T14:58:55.082Z,67.43
2022-11-28T15:01:38.330Z,67.00
2022-11-28T15:04:07.521Z,67.12
2022-11-28T15:06:38.445Z,67.09
2022-11-28T15:09:16.056Z,67.30
2022-11-28T15:12:08.159Z,67.00
2022-11-28T15:14:35.605Z,67.42
2022-11-28T15:17:05.373Z,67.35
2022-11-28T15:19:38.948Z,67.15
2022-11-28T15:22:05.838Z,64.79
2022-11-28T15:24:38.304Z,64.59
2022-11-28T15:27:07.662Z,65.08
2022-11-28T15:29:36.149Z,64.51
2022-11-28T15:32:03.344Z,64.26
2022-11-28T15:34:35.210Z,64.64
2022-11-28T15:37:05.189Z,65.19
2022-11-28T15:39:39.763Z,65.12
2022-11-28T15:42:15.826Z,65.97
2022-11-28T15:44:43.135Z,65.66
2022-11-28T15:47:21.391Z,66.05
2022-11-28T15:50:22.265Z,66.31
2022-11-28T15:53:04.201Z,67.05
2022-11-28T15:55:32.835Z,66.78
2022-11-28T15:58:20.925Z,66.21
2022-11-28T16:01:10.694Z,65.62
2022-11-28T16:03:54.097Z,66.71
2022-11-28T16:06:23.099Z,65.93
2022-11-28T16:08:58.165Z,65.92
2022-11-28T16:11:27.681Z,67.55
2022-11-28T16:13:57.499Z,67.96
2022-11-28T16:16:33.364Z,68.56
2022-11-28T16:19:08.177Z,69.62
2022-11-28T16:21:50.724Z,69.25
2022-11-28T16:24:25.272Z,68.24
2022-11-28T16:27:04.568Z,68.14
2022-11-28T16:29:36.173Z,68.06
2022-11-28T16:32:21.613Z,68.04
2022-11-28T16:34:53.652Z,68.05
2022-11-28T16:37:26.692Z,67.87
2022-11-28T16:40:21.643Z,67.64
2022-11-28T16:42:55.272Z,67.30
2022-11-28T16:45:24.589Z,67.50
2022-11-28T16:48:08.771Z,67.50
2022-11-28T16:50:37.132Z,67.23
2022-11-28T16:53:05.102Z,66.54
2022-11-28T16:55:34.725Z,66.00
2022-11-28T16:58:15.099Z,66.88
2022-11-28T17:00:51.742Z,67.16
2022-11-28T17:03:50.134Z,66.64
2022-11-28T17:06:23.088Z,66.92
2022-11-28T17:08:50.421Z,66.16
2022-11-28T17:11:19.998Z,65.81
2022-11-28T17:13:46.674Z,65.96
2022-11-28T17:16:19.941Z,65.47
2022-11-28T17:18:47.337Z,64.73
2022-11-28T17:21:16.585Z,64.30
2022-11-28T17:23:43.235Z,64.10
2022-11-28T17:26:11.098Z,63.74
2022-11-28T17:28:38.290Z,64.05
2022-11-28T17:31:05.149Z,63.89
2022-11-28T17:33:31.791Z,63.95
2022-11-28T17:36:03.881Z,63.68
2022-11-28T17:38:32.958Z,63.87
2022-11-28T17:41:01.935Z,63.85
2022-11-28T17:43:28.705Z,64.08
2022-11-28T17:45:55.195Z,64.40
2022-11-28T17:48:21.594Z,65.30
2022-11-28T17:50:49.786Z,66.18
2022-11-28T17:53:18.990Z,66.28
2022-11-28T17:55:47.178Z,66.79
2022-11-28T17:58:17.200Z,66.42
2022-11-28T18:00:44.091Z,67.16
2022-11-28T18:03:14.381Z,67.50
2022-11-28T18:05:43.695Z,68.05
2022-11-28T18:08:10.463Z,67.77
2022-11-28T18:10:37.084Z,68.63
2022-11-28T18:13:04.472Z,68.18
2022-11-28T18:15:32.547Z,66.91
2022-11-28T18:17:59.354Z,66.59
2022-11-28T18:20:28.748Z,65.75
2022-11-28T18:22:56.488Z,65.21
2022-11-28T18:25:24.022Z,65.16
2022-11-28T18:27:50.582Z,64.85
2022-11-28T18:30:17.474Z,65.15
2022-11-28T18:32:44.120Z,64.31
2022-11-28T18:35:11.571Z,65.11
2022-11-28T18:37:38.906Z,66.09
2022-11-28T18:40:09.113Z,66.27
2022-11-28T18:42:36.162Z,67.68
2022-11-28T18:45:02.667Z,67.69
2022-11-28T18:47:34.833Z,68.71
2022-11-28T18:50:01.373Z,68.94
2022-11-28T18:52:27.950Z,69.13
2022-11-28T18:54:54.310Z,68.96
2022-11-28T18:57:20.987Z,68.96
2022-11-28T18:59:54.343Z,69.27
2022-11-28T19:02:23.770Z,69.17
2022-11-28T19:04:50.203Z,69.16
2022-11-28T19:07:16.662Z,69.83
2022-11-28T19:09:44.951Z,69.68
2022-11-28T19:12:11.841Z,70.73
2022-11-28T19:14:38.396Z,70.06
2022-11-28T19:17:05.459Z,69.05
2022-11-28T19:19:33.779Z,69.08
2022-11-28T19:22:00.129Z,69.37
2022-11-28T19:24:26.759Z,70.31
2022-11-28T19:26:53.198Z,70.24
2022-11-28T19:29:19.629Z,69.90
2022-11-28T19:31:48.517Z,70.19
2022-11-28T19:34:17.430Z,70.94
2022-11-28T19:36:49.982Z,71.27
2022-11-28T19:39:24.124Z,71.34
2022-11-28T19:41:52.987Z,71.09
2022-11-28T19:44:21.091Z,71.86
2022-11-28T19:46:47.931Z,71.49
2022-11-28T19:49:21.017Z,71.45
2022-11-28T19:51:48.231Z,70.20
2022-11-28T19:54:15.782Z,70.69
2022-11-28T19:56:42.364Z,70.12
2022-11-28T19:59:10.476Z,70.58
2022-11-28T20:01:38.645Z,70.97
2022-11-28T20:04:05.192Z,71.41
2022-11-28T20:08:10.522Z,72.07
2022-11-28T20:10:38.737Z,72.10
2022-11-28T20:13:06.372Z,72.66
2022-11-28T20:15:36.862Z,71.97
2022-11-28T20:18:03.542Z,72.34
2022-11-28T20:20:30.069Z,71.68
2022-11-28T20:22:57.671Z,70.41
2022-11-28T20:25:24.063Z,70.25
2022-11-28T20:27:50.407Z,71.09
2022-11-28T20:30:17.392Z,71.68
2022-11-28T20:32:43.919Z,71.00
2022-11-28T20:35:10.376Z,71.47
2022-11-28T20:37:39.044Z,73.13
2022-11-28T20:40:07.699Z,73.53
2022-11-28T20:42:39.587Z,73.79
2022-11-28T20:45:07.165Z,73.50
2022-11-28T20:47:37.514Z,73.54
2022-11-28T20:50:07.085Z,73.13
2022-11-28T20:52:33.718Z,73.67
2022-11-28T20:55:00.277Z,73.42
2022-11-28T20:57:27.037Z,73.72
2022-11-28T20:59:57.375Z,72.94
2022-11-28T21:02:23.883Z,72.49
2022-11-28T21:04:50.333Z,73.25
2022-11-28T21:07:17.006Z,73.46
2022-11-28T21:09:43.866Z,74.06
2022-11-28T21:12:10.504Z,74.04
2022-11-28T21:14:36.929Z,74.24
2022-11-28T21:17:03.511Z,74.71
2022-11-28T21:19:29.859Z,74.98
2022-11-28T21:21:56.390Z,75.79
2022-11-28T21:24:22.811Z,75.44
2022-11-28T21:26:53.548Z,75.26
2022-11-28T21:29:22.390Z,76.06
2022-11-28T21:31:48.804Z,75.93
2022-11-28T21:34:16.859Z,75.84
2022-11-28T21:36:43.755Z,75.66
2022-11-28T21:39:14.000Z,75.48
2022-11-28T21:41:40.676Z,75.29
2022-11-28T21:44:07.180Z,75.32
2022-11-28T21:46:33.756Z,74.99
2022-11-28T21:49:00.346Z,75.14
2022-11-28T21:51:28.764Z,75.06
2022-11-28T21:53:57.202Z,74.62
2022-11-28T21:56:23.926Z,74.30
2022-11-28T21:58:50.312Z,74.08
2022-11-28T22:01:16.916Z,75.25
2022-11-28T22:03:43.738Z,75.31
2022-11-28T22:06:16.840Z,75.56
2022-11-28T22:08:43.960Z,76.00
2022-11-28T22:11:13.063Z,75.78
2022-11-28T22:13:42.052Z,76.26
2022-11-28T22:16:20.658Z,76.16
2022-11-28T22:18:48.609Z,76.41
2022-11-28T22:24:02.701Z,76.70
2022-11-28T22:26:29.092Z,76.74
2022-11-28T22:28:55.572Z,76.38
2022-11-28T22:31:22.520Z,76.90
2022-11-28T22:33:50.241Z,75.62
2022-11-28T22:36:19.102Z,75.17
2022-11-28T22:38:47.484Z,75.83
2022-11-28T22:41:24.780Z,75.25
2022-11-28T22:43:56.533Z,75.51
2022-11-28T22:46:22.970Z,75.13
2022-11-28T22:48:50.441Z,75.69
2022-11-28T22:51:20.969Z,75.50
2022-11-28T22:53:47.481Z,75.74
2022-11-28T22:56:15.525Z,75.25
2022-11-28T22:58:43.878Z,74.64
2022-11-28T23:01:22.106Z,74.16
2022-11-28T23:03:48.738Z,74.67
2022-11-28T23:06:18.662Z,75.50
2022-11-28T23:08:45.334Z,76.61
2022-11-28T23:11:17.533Z,76.82
2022-11-28T23:13:44.803Z,76.62
2022-11-28T23:16:20.182Z,76.95
2022-11-28T23:18:49.202Z,78.42
2022-11-28T23:21:17.726Z,78.32
2022-11-28T23:23:45.650Z,77.64
2022-11-28T23:26:14.459Z,77.22
2022-11-28T23:28:41.627Z,77.55
2022-11-28T23:31:11.521Z,76.80
2022-11-28T23:33:38.340Z,78.03
2022-11-28T23:36:37.008Z,78.02
2022-11-28T23:39:21.719Z,77.64
2022-11-28T23:41:49.001Z,77.34
2022-11-28T23:44:17.269Z,77.65
2022-11-28T23:46:44.232Z,77.16
2022-11-28T23:49:11.556Z,76.67
2022-11-28T23:51:40.170Z,76.71
2022-11-28T23:54:07.985Z,76.58
2022-11-28T23:56:36.182Z,76.90
2022-11-28T23:59:04.640Z,77.56
